sensor_id;sensor_type;location;lat;lon;timestamp;pressure;altitude;pressure_sealevel;temperature;humidity
75072;BME280;63651;55.728;38.022;2023-05-16T00:00:38;100142.66;;;20.42;33.59
75072;BME280;63651;55.728;38.022;2023-05-16T00:05:39;100146.75;;;20.40;33.76
75072;BME280;63651;55.728;38.022;2023-05-16T00:10:40;100155.78;;;20.35;33.74
75072;BME280;63651;55.728;38.022;2023-05-16T00:15:41;100154.34;;;20.33;33.86
75072;BME280;63651;55.728;38.022;2023-05-16T00:20:44;100153.78;;;20.31;33.92
75072;BME280;63651;55.728;38.022;2023-05-16T00:25:45;100160.72;;;20.33;33.91
75072;BME280;63651;55.728;38.022;2023-05-16T00:30:47;100167.81;;;20.29;33.96
75072;BME280;63651;55.728;38.022;2023-05-16T00:35:48;100163.91;;;20.25;34.02
75072;BME280;63651;55.728;38.022;2023-05-16T00:40:49;100160.81;;;20.22;33.88
75072;BME280;63651;55.728;38.022;2023-05-16T00:45:50;100157.47;;;20.20;33.96
75072;BME280;63651;55.728;38.022;2023-05-16T00:50:51;100170.69;;;20.18;33.84
75072;BME280;63651;55.728;38.022;2023-05-16T00:55:54;100160.41;;;20.13;34.01
75072;BME280;63651;55.728;38.022;2023-05-16T01:00:56;100163.75;;;20.15;34.04
75072;BME280;63651;55.728;38.022;2023-05-16T01:05:57;100169.19;;;20.10;34.07
75072;BME280;63651;55.728;38.022;2023-05-16T01:11:21;100167.28;;;20.10;34.11
75072;BME280;63651;55.728;38.022;2023-05-16T01:16:38;100164.38;;;20.00;34.10
75072;BME280;63651;55.728;38.022;2023-05-16T01:21:48;100167.44;;;20.04;34.20
75072;BME280;63651;55.728;38.022;2023-05-16T01:26:50;100158.09;;;20.05;34.17
75072;BME280;63651;55.728;38.022;2023-05-16T01:31:52;100165.34;;;20.11;34.06
75072;BME280;63651;55.728;38.022;2023-05-16T01:47:10;100166.38;;;20.05;33.91
75072;BME280;63651;55.728;38.022;2023-05-16T01:52:17;100169.44;;;20.08;33.86
75072;BME280;63651;55.728;38.022;2023-05-16T01:57:23;100173.88;;;20.09;33.83
75072;BME280;63651;55.728;38.022;2023-05-16T02:02:24;100170.03;;;20.10;33.85
75072;BME280;63651;55.728;38.022;2023-05-16T02:07:25;100166.78;;;20.13;33.87
75072;BME280;63651;55.728;38.022;2023-05-16T02:12:27;100167.34;;;20.16;33.75
75072;BME280;63651;55.728;38.022;2023-05-16T02:17:28;100159.34;;;20.14;33.57
75072;BME280;63651;55.728;38.022;2023-05-16T02:22:29;100162.75;;;20.21;33.53
75072;BME280;63651;55.728;38.022;2023-05-16T02:27:30;100164.16;;;20.24;33.37
75072;BME280;63651;55.728;38.022;2023-05-16T02:32:31;100158.06;;;20.22;33.50
75072;BME280;63651;55.728;38.022;2023-05-16T02:37:33;100161.56;;;20.17;33.55
75072;BME280;63651;55.728;38.022;2023-05-16T02:42:34;100170.25;;;20.26;33.46
75072;BME280;63651;55.728;38.022;2023-05-16T02:47:35;100164.06;;;20.35;33.44
75072;BME280;63651;55.728;38.022;2023-05-16T02:52:36;100172.59;;;20.34;33.43
75072;BME280;63651;55.728;38.022;2023-05-16T02:57:37;100167.66;;;20.36;33.48
75072;BME280;63651;55.728;38.022;2023-05-16T03:02:38;100166.06;;;20.40;33.38
75072;BME280;63651;55.728;38.022;2023-05-16T03:07:39;100163.66;;;20.43;33.38
75072;BME280;63651;55.728;38.022;2023-05-16T03:12:40;100158.88;;;20.39;33.58
75072;BME280;63651;55.728;38.022;2023-05-16T03:17:41;100186.69;;;20.54;33.12
75072;BME280;63651;55.728;38.022;2023-05-16T03:22:42;100196.56;;;20.50;33.34
75072;BME280;63651;55.728;38.022;2023-05-16T03:27:44;100199.47;;;20.60;32.99
75072;BME280;63651;55.728;38.022;2023-05-16T03:32:45;100190.69;;;20.63;32.84
75072;BME280;63651;55.728;38.022;2023-05-16T03:37:47;100202.81;;;20.62;33.01
75072;BME280;63651;55.728;38.022;2023-05-16T03:42:48;100215.34;;;20.70;32.96
75072;BME280;63651;55.728;38.022;2023-05-16T03:47:49;100215.94;;;20.72;32.98
75072;BME280;63651;55.728;38.022;2023-05-16T03:52:51;100211.69;;;20.64;33.27
75072;BME280;63651;55.728;38.022;2023-05-16T03:58:10;100213.16;;;20.72;33.00
75072;BME280;63651;55.728;38.022;2023-05-16T04:03:12;100220.03;;;20.69;32.62
75072;BME280;63651;55.728;38.022;2023-05-16T04:08:13;100223.38;;;20.71;32.80
75072;BME280;63651;55.728;38.022;2023-05-16T04:13:14;100221.63;;;20.65;32.85
75072;BME280;63651;55.728;38.022;2023-05-16T04:18:15;100222.47;;;20.66;33.24
75072;BME280;63651;55.728;38.022;2023-05-16T04:23:17;100223.88;;;20.68;33.38
75072;BME280;63651;55.728;38.022;2023-05-16T04:28:18;100218.09;;;20.70;33.59
75072;BME280;63651;55.728;38.022;2023-05-16T04:33:19;100223.69;;;20.75;33.62
75072;BME280;63651;55.728;38.022;2023-05-16T04:38:20;100225.63;;;20.74;33.77
75072;BME280;63651;55.728;38.022;2023-05-16T04:43:21;100231.66;;;20.71;33.99
75072;BME280;63651;55.728;38.022;2023-05-16T04:48:40;100225.38;;;20.76;33.75
75072;BME280;63651;55.728;38.022;2023-05-16T04:59:01;100225.28;;;20.88;35.37
75072;BME280;63651;55.728;38.022;2023-05-16T05:04:22;100227.59;;;20.96;35.47
75072;BME280;63651;55.728;38.022;2023-05-16T05:09:23;100223.72;;;20.97;36.48
75072;BME280;63651;55.728;38.022;2023-05-16T05:14:24;100237.88;;;21.22;36.45
75072;BME280;63651;55.728;38.022;2023-05-16T05:19:25;100241.47;;;21.23;35.29
75072;BME280;63651;55.728;38.022;2023-05-16T05:24:26;100230.53;;;21.11;34.44
75072;BME280;63651;55.728;38.022;2023-05-16T05:29:27;100239.50;;;20.80;34.78
75072;BME280;63651;55.728;38.022;2023-05-16T05:34:28;100239.91;;;20.16;33.01
75072;BME280;63651;55.728;38.022;2023-05-16T05:39:30;100244.59;;;20.16;34.45
75072;BME280;63651;55.728;38.022;2023-05-16T05:44:31;100237.41;;;20.14;33.51
75072;BME280;63651;55.728;38.022;2023-05-16T05:49:33;100245.09;;;19.50;31.08
75072;BME280;63651;55.728;38.022;2023-05-16T05:54:35;100251.00;;;19.71;35.46
75072;BME280;63651;55.728;38.022;2023-05-16T05:59:36;100259.03;;;19.89;34.86
75072;BME280;63651;55.728;38.022;2023-05-16T06:04:37;100258.63;;;19.80;33.20
75072;BME280;63651;55.728;38.022;2023-05-16T06:09:38;100267.44;;;19.66;32.96
75072;BME280;63651;55.728;38.022;2023-05-16T06:14:40;100270.44;;;19.64;34.58
75072;BME280;63651;55.728;38.022;2023-05-16T06:19:41;100270.00;;;19.44;31.30
75072;BME280;63651;55.728;38.022;2023-05-16T06:24:42;100269.25;;;19.48;32.55
75072;BME280;63651;55.728;38.022;2023-05-16T06:29:44;100277.44;;;19.43;33.58
75072;BME280;63651;55.728;38.022;2023-05-16T06:34:47;100286.75;;;19.66;33.98
75072;BME280;63651;55.728;38.022;2023-05-16T06:39:48;100283.19;;;19.82;34.29
75072;BME280;63651;55.728;38.022;2023-05-16T06:44:49;100278.00;;;19.86;32.50
75072;BME280;63651;55.728;38.022;2023-05-16T06:49:50;100266.72;;;19.87;33.03
75072;BME280;63651;55.728;38.022;2023-05-16T06:54:51;100266.06;;;19.97;32.31
75072;BME280;63651;55.728;38.022;2023-05-16T06:59:52;100267.56;;;19.88;31.90
75072;BME280;63651;55.728;38.022;2023-05-16T07:04:54;100266.94;;;19.69;29.40
75072;BME280;63651;55.728;38.022;2023-05-16T07:09:55;100269.31;;;19.94;31.41
75072;BME280;63651;55.728;38.022;2023-05-16T07:14:56;100280.03;;;20.07;31.20
75072;BME280;63651;55.728;38.022;2023-05-16T07:19:57;100268.66;;;20.03;31.68
75072;BME280;63651;55.728;38.022;2023-05-16T07:24:58;100262.31;;;20.20;31.16
75072;BME280;63651;55.728;38.022;2023-05-16T07:30:00;100260.13;;;20.22;29.72
75072;BME280;63651;55.728;38.022;2023-05-16T07:35:02;100258.97;;;20.18;30.21
75072;BME280;63651;55.728;38.022;2023-05-16T07:40:03;100266.00;;;20.25;29.50
75072;BME280;63651;55.728;38.022;2023-05-16T07:45:05;100250.09;;;20.49;31.16
75072;BME280;63651;55.728;38.022;2023-05-16T07:50:07;100246.75;;;20.30;27.95
75072;BME280;63651;55.728;38.022;2023-05-16T07:55:08;100250.84;;;20.28;28.00
75072;BME280;63651;55.728;38.022;2023-05-16T08:00:10;100247.03;;;20.45;29.36
75072;BME280;63651;55.728;38.022;2023-05-16T08:05:11;100243.06;;;20.58;27.96
75072;BME280;63651;55.728;38.022;2023-05-16T08:10:12;100240.31;;;20.58;27.98
75072;BME280;63651;55.728;38.022;2023-05-16T08:15:13;100243.34;;;20.40;26.78
75072;BME280;63651;55.728;38.022;2023-05-16T08:20:15;100237.81;;;20.57;27.29
75072;BME280;63651;55.728;38.022;2023-05-16T08:25:16;100234.63;;;20.48;26.44
75072;BME280;63651;55.728;38.022;2023-05-16T08:30:17;100240.06;;;20.60;27.09
75072;BME280;63651;55.728;38.022;2023-05-16T08:35:18;100238.91;;;20.77;29.25
75072;BME280;63651;55.728;38.022;2023-05-16T08:40:21;100216.09;;;20.82;28.25
75072;BME280;63651;55.728;38.022;2023-05-16T08:45:25;100217.94;;;20.98;27.46
75072;BME280;63651;55.728;38.022;2023-05-16T08:50:30;100222.38;;;20.99;28.23
75072;BME280;63651;55.728;38.022;2023-05-16T08:55:32;100216.41;;;21.07;28.51
75072;BME280;63651;55.728;38.022;2023-05-16T09:00:34;100213.56;;;21.02;27.34
75072;BME280;63651;55.728;38.022;2023-05-16T09:05:35;100210.69;;;21.14;27.43
75072;BME280;63651;55.728;38.022;2023-05-16T09:10:36;100199.56;;;21.09;26.90
75072;BME280;63651;55.728;38.022;2023-05-16T09:15:37;100190.69;;;21.07;28.82
75072;BME280;63651;55.728;38.022;2023-05-16T09:20:43;100191.41;;;21.19;27.26
75072;BME280;63651;55.728;38.022;2023-05-16T09:25:46;100208.31;;;21.23;26.78
75072;BME280;63651;55.728;38.022;2023-05-16T09:30:47;100189.94;;;21.12;25.46
75072;BME280;63651;55.728;38.022;2023-05-16T09:36:00;100195.72;;;21.10;25.98
75072;BME280;63651;55.728;38.022;2023-05-16T09:41:01;100206.25;;;21.35;26.17
75072;BME280;63651;55.728;38.022;2023-05-16T09:46:02;100198.00;;;21.40;25.94
75072;BME280;63651;55.728;38.022;2023-05-16T09:51:04;100194.41;;;21.39;25.95
75072;BME280;63651;55.728;38.022;2023-05-16T09:56:15;100186.44;;;21.43;25.58
75072;BME280;63651;55.728;38.022;2023-05-16T10:01:17;100186.06;;;21.34;25.37
75072;BME280;63651;55.728;38.022;2023-05-16T10:06:18;100176.38;;;21.32;24.52
75072;BME280;63651;55.728;38.022;2023-05-16T10:11:20;100172.63;;;21.21;24.69
75072;BME280;63651;55.728;38.022;2023-05-16T10:16:22;100171.72;;;21.37;25.61
75072;BME280;63651;55.728;38.022;2023-05-16T10:21:24;100159.63;;;21.44;24.93
75072;BME280;63651;55.728;38.022;2023-05-16T10:26:27;100153.66;;;21.57;25.85
75072;BME280;63651;55.728;38.022;2023-05-16T10:31:29;100156.94;;;21.54;24.83
75072;BME280;63651;55.728;38.022;2023-05-16T10:36:31;100134.34;;;21.62;25.07
75072;BME280;63651;55.728;38.022;2023-05-16T10:41:32;100139.63;;;21.63;25.52
75072;BME280;63651;55.728;38.022;2023-05-16T10:46:52;100146.84;;;21.69;24.99
75072;BME280;63651;55.728;38.022;2023-05-16T10:52:06;100135.56;;;21.76;25.72
75072;BME280;63651;55.728;38.022;2023-05-16T10:57:10;100128.31;;;21.70;25.69
75072;BME280;63651;55.728;38.022;2023-05-16T11:02:26;100124.91;;;21.58;25.50
75072;BME280;63651;55.728;38.022;2023-05-16T11:07:35;100116.09;;;21.61;25.37
75072;BME280;63651;55.728;38.022;2023-05-16T11:12:42;100106.47;;;21.68;25.18
75072;BME280;63651;55.728;38.022;2023-05-16T11:17:44;100110.09;;;21.74;25.51
75072;BME280;63651;55.728;38.022;2023-05-16T11:22:45;100101.53;;;21.76;25.65
75072;BME280;63651;55.728;38.022;2023-05-16T11:27:47;100103.22;;;21.77;25.59
75072;BME280;63651;55.728;38.022;2023-05-16T11:33:06;100098.56;;;21.82;26.05
75072;BME280;63651;55.728;38.022;2023-05-16T11:38:14;100088.28;;;21.78;25.65
75072;BME280;63651;55.728;38.022;2023-05-16T11:43:18;100082.44;;;21.74;25.62
75072;BME280;63651;55.728;38.022;2023-05-16T11:48:19;100090.81;;;21.84;25.77
75072;BME280;63651;55.728;38.022;2023-05-16T11:53:23;100083.34;;;21.85;26.21
75072;BME280;63651;55.728;38.022;2023-05-16T11:58:24;100080.56;;;21.80;26.17
75072;BME280;63651;55.728;38.022;2023-05-16T12:03:26;100086.16;;;21.90;25.79
75072;BME280;63651;55.728;38.022;2023-05-16T12:08:27;100074.28;;;21.94;26.37
75072;BME280;63651;55.728;38.022;2023-05-16T12:13:28;100076.56;;;22.02;25.84
75072;BME280;63651;55.728;38.022;2023-05-16T12:18:29;100075.88;;;21.85;26.01
75072;BME280;63651;55.728;38.022;2023-05-16T12:23:33;100084.63;;;22.09;25.91
75072;BME280;63651;55.728;38.022;2023-05-16T12:28:35;100087.50;;;22.19;26.02
75072;BME280;63651;55.728;38.022;2023-05-16T12:33:38;100071.44;;;22.16;26.30
75072;BME280;63651;55.728;38.022;2023-05-16T12:38:39;100067.53;;;22.12;26.16
75072;BME280;63651;55.728;38.022;2023-05-16T12:43:40;100068.47;;;22.33;26.19
75072;BME280;63651;55.728;38.022;2023-05-16T12:48:41;100056.78;;;22.21;26.14
75072;BME280;63651;55.728;38.022;2023-05-16T12:53:48;100055.16;;;22.25;26.29
75072;BME280;63651;55.728;38.022;2023-05-16T12:58:50;100057.34;;;22.23;25.46
75072;BME280;63651;55.728;38.022;2023-05-16T13:03:52;100049.94;;;22.39;25.77
75072;BME280;63651;55.728;38.022;2023-05-16T13:08:53;100059.38;;;22.43;25.99
75072;BME280;63651;55.728;38.022;2023-05-16T13:13:54;100051.88;;;22.38;25.63
75072;BME280;63651;55.728;38.022;2023-05-16T13:18:55;100051.63;;;22.45;25.73
75072;BME280;63651;55.728;38.022;2023-05-16T13:23:57;100049.38;;;22.37;25.67
75072;BME280;63651;55.728;38.022;2023-05-16T13:28:58;100056.31;;;22.44;25.59
75072;BME280;63651;55.728;38.022;2023-05-16T13:34:01;100051.38;;;22.51;25.71
75072;BME280;63651;55.728;38.022;2023-05-16T13:39:02;100052.97;;;22.37;25.27
75072;BME280;63651;55.728;38.022;2023-05-16T13:44:04;100057.13;;;22.34;25.80
75072;BME280;63651;55.728;38.022;2023-05-16T13:49:05;100052.50;;;22.55;25.43
75072;BME280;63651;55.728;38.022;2023-05-16T13:54:06;100044.19;;;22.60;24.91
75072;BME280;63651;55.728;38.022;2023-05-16T13:59:07;100046.81;;;23.03;24.91
75072;BME280;63651;55.728;38.022;2023-05-16T14:04:08;100036.00;;;23.16;25.13
75072;BME280;63651;55.728;38.022;2023-05-16T14:09:09;100037.69;;;23.27;24.83
75072;BME280;63651;55.728;38.022;2023-05-16T14:14:12;100045.72;;;23.24;24.78
75072;BME280;63651;55.728;38.022;2023-05-16T14:19:13;100039.66;;;23.63;24.75
75072;BME280;63651;55.728;38.022;2023-05-16T14:24:14;100028.78;;;23.91;24.30
75072;BME280;63651;55.728;38.022;2023-05-16T14:29:15;100032.94;;;23.94;23.84
75072;BME280;63651;55.728;38.022;2023-05-16T14:34:16;100033.94;;;24.23;23.80
75072;BME280;63651;55.728;38.022;2023-05-16T14:39:17;100035.03;;;24.38;23.16
75072;BME280;63651;55.728;38.022;2023-05-16T14:44:18;100030.19;;;24.58;23.15
75072;BME280;63651;55.728;38.022;2023-05-16T14:49:21;100019.84;;;24.74;22.82
75072;BME280;63651;55.728;38.022;2023-05-16T14:54:22;100019.47;;;24.91;22.68
75072;BME280;63651;55.728;38.022;2023-05-16T14:59:23;100034.00;;;25.22;22.89
75072;BME280;63651;55.728;38.022;2023-05-16T15:04:26;100036.81;;;25.51;23.00
75072;BME280;63651;55.728;38.022;2023-05-16T15:09:28;100031.38;;;25.70;22.78
75072;BME280;63651;55.728;38.022;2023-05-16T15:14:29;100030.78;;;25.73;21.55
75072;BME280;63651;55.728;38.022;2023-05-16T15:19:30;100031.31;;;25.99;21.07
75072;BME280;63651;55.728;38.022;2023-05-16T15:24:31;100040.31;;;26.20;21.75
75072;BME280;63651;55.728;38.022;2023-05-16T15:29:32;100029.41;;;26.47;22.15
75072;BME280;63651;55.728;38.022;2023-05-16T15:34:34;100039.44;;;26.86;21.30
75072;BME280;63651;55.728;38.022;2023-05-16T15:39:35;100037.59;;;27.70;19.84
75072;BME280;63651;55.728;38.022;2023-05-16T15:44:36;100033.75;;;29.03;18.90
75072;BME280;63651;55.728;38.022;2023-05-16T15:49:38;100030.03;;;29.83;17.88
75072;BME280;63651;55.728;38.022;2023-05-16T15:54:39;100028.41;;;29.38;17.70
75072;BME280;63651;55.728;38.022;2023-05-16T15:59:40;100030.09;;;28.39;18.78
75072;BME280;63651;55.728;38.022;2023-05-16T16:04:41;100029.84;;;27.81;20.59
75072;BME280;63651;55.728;38.022;2023-05-16T16:09:42;100030.03;;;27.38;21.73
75072;BME280;63651;55.728;38.022;2023-05-16T16:14:45;100027.91;;;26.92;20.51
75072;BME280;63651;55.728;38.022;2023-05-16T16:19:49;100037.91;;;26.98;21.92
75072;BME280;63651;55.728;38.022;2023-05-16T16:24:50;100043.47;;;26.37;25.02
75072;BME280;63651;55.728;38.022;2023-05-16T16:29:51;100051.03;;;26.07;24.30
75072;BME280;63651;55.728;38.022;2023-05-16T16:34:52;100060.00;;;25.99;21.58
75072;BME280;63651;55.728;38.022;2023-05-16T16:39:53;100063.66;;;25.95;22.16
75072;BME280;63651;55.728;38.022;2023-05-16T16:44:54;100060.69;;;25.86;22.58
75072;BME280;63651;55.728;38.022;2023-05-16T16:49:56;100058.97;;;25.27;22.89
75072;BME280;63651;55.728;38.022;2023-05-16T16:54:57;100070.03;;;24.98;23.50
75072;BME280;63651;55.728;38.022;2023-05-16T16:59:58;100078.50;;;24.63;24.62
75072;BME280;63651;55.728;38.022;2023-05-16T17:04:59;100073.34;;;24.25;26.19
75072;BME280;63651;55.728;38.022;2023-05-16T17:10:01;100080.31;;;24.28;25.80
75072;BME280;63651;55.728;38.022;2023-05-16T17:15:04;100086.22;;;23.96;26.11
75072;BME280;63651;55.728;38.022;2023-05-16T17:20:06;100079.88;;;23.70;26.99
75072;BME280;63651;55.728;38.022;2023-05-16T17:25:09;100087.38;;;23.54;26.64
75072;BME280;63651;55.728;38.022;2023-05-16T17:30:11;100092.59;;;23.46;26.19
75072;BME280;63651;55.728;38.022;2023-05-16T17:35:12;100097.28;;;23.25;26.60
75072;BME280;63651;55.728;38.022;2023-05-16T17:40:14;100108.06;;;23.11;27.63
75072;BME280;63651;55.728;38.022;2023-05-16T17:45:17;100103.34;;;23.02;28.08
75072;BME280;63651;55.728;38.022;2023-05-16T17:50:18;100104.44;;;22.95;29.70
75072;BME280;63651;55.728;38.022;2023-05-16T17:55:21;100100.81;;;22.85;31.55
75072;BME280;63651;55.728;38.022;2023-05-16T18:05:42;100096.88;;;22.76;34.56
75072;BME280;63651;55.728;38.022;2023-05-16T18:10:43;100100.19;;;22.73;36.01
75072;BME280;63651;55.728;38.022;2023-05-16T18:15:44;100101.81;;;22.63;36.82
75072;BME280;63651;55.728;38.022;2023-05-16T18:20:45;100104.03;;;22.61;37.13
75072;BME280;63651;55.728;38.022;2023-05-16T18:25:47;100107.34;;;22.58;43.31
75072;BME280;63651;55.728;38.022;2023-05-16T18:30:48;100108.66;;;22.46;42.30
75072;BME280;63651;55.728;38.022;2023-05-16T18:35:49;100106.91;;;22.24;44.24
75072;BME280;63651;55.728;38.022;2023-05-16T18:40:50;100111.28;;;22.15;41.39
75072;BME280;63651;55.728;38.022;2023-05-16T18:45:51;100120.78;;;21.97;38.88
75072;BME280;63651;55.728;38.022;2023-05-16T18:50:52;100116.81;;;21.83;40.73
75072;BME280;63651;55.728;38.022;2023-05-16T18:55:53;100117.69;;;21.89;41.97
75072;BME280;63651;55.728;38.022;2023-05-16T19:00:55;100120.69;;;21.82;42.46
75072;BME280;63651;55.728;38.022;2023-05-16T19:05:56;100122.31;;;21.78;43.27
75072;BME280;63651;55.728;38.022;2023-05-16T19:10:57;100129.72;;;21.72;41.06
75072;BME280;63651;55.728;38.022;2023-05-16T19:15:59;100132.72;;;21.66;40.69
75072;BME280;63651;55.728;38.022;2023-05-16T19:21:00;100132.50;;;21.40;37.82
75072;BME280;63651;55.728;38.022;2023-05-16T19:26:01;100119.97;;;21.06;36.33
75072;BME280;63651;55.728;38.022;2023-05-16T19:31:02;100123.19;;;20.98;38.08
75072;BME280;63651;55.728;38.022;2023-05-16T19:36:04;100119.19;;;20.84;38.30
75072;BME280;63651;55.728;38.022;2023-05-16T19:41:05;100113.91;;;20.60;37.53
75072;BME280;63651;55.728;38.022;2023-05-16T19:46:06;100119.94;;;20.57;38.17
75072;BME280;63651;55.728;38.022;2023-05-16T19:51:07;100117.81;;;20.42;37.38
75072;BME280;63651;55.728;38.022;2023-05-16T19:56:08;100133.19;;;20.38;37.00
75072;BME280;63651;55.728;38.022;2023-05-16T20:01:10;100130.97;;;20.19;37.25
75072;BME280;63651;55.728;38.022;2023-05-16T20:06:11;100128.41;;;20.12;38.92
75072;BME280;63651;55.728;38.022;2023-05-16T20:11:12;100137.44;;;20.07;37.78
75072;BME280;63651;55.728;38.022;2023-05-16T20:21:33;100139.13;;;19.92;38.32
75072;BME280;63651;55.728;38.022;2023-05-16T20:26:34;100137.13;;;19.87;39.01
75072;BME280;63651;55.728;38.022;2023-05-16T20:36:54;100137.38;;;19.86;38.53
75072;BME280;63651;55.728;38.022;2023-05-16T20:41:55;100135.13;;;19.83;39.05
75072;BME280;63651;55.728;38.022;2023-05-16T20:46:56;100136.47;;;19.80;38.82
75072;BME280;63651;55.728;38.022;2023-05-16T20:51:57;100137.66;;;19.67;38.81
75072;BME280;63651;55.728;38.022;2023-05-16T20:56:59;100133.56;;;19.70;38.99
75072;BME280;63651;55.728;38.022;2023-05-16T21:02:00;100132.88;;;19.63;39.12
75072;BME280;63651;55.728;38.022;2023-05-16T21:07:01;100142.75;;;19.59;39.21
75072;BME280;63651;55.728;38.022;2023-05-16T21:12:03;100142.91;;;19.52;39.17
75072;BME280;63651;55.728;38.022;2023-05-16T21:17:04;100140.25;;;19.45;40.03
75072;BME280;63651;55.728;38.022;2023-05-16T21:22:05;100139.66;;;19.43;38.85
75072;BME280;63651;55.728;38.022;2023-05-16T21:27:06;100135.81;;;19.44;39.60
75072;BME280;63651;55.728;38.022;2023-05-16T21:32:07;100128.72;;;19.48;39.12
75072;BME280;63651;55.728;38.022;2023-05-16T21:37:09;100135.72;;;19.39;39.26
75072;BME280;63651;55.728;38.022;2023-05-16T21:42:11;100133.63;;;19.30;39.71
75072;BME280;63651;55.728;38.022;2023-05-16T21:47:12;100120.19;;;19.33;39.44
75072;BME280;63651;55.728;38.022;2023-05-16T21:52:13;100116.69;;;19.38;39.63
75072;BME280;63651;55.728;38.022;2023-05-16T21:57:14;100122.03;;;19.28;39.34
75072;BME280;63651;55.728;38.022;2023-05-16T22:02:15;100127.53;;;19.28;39.48
75072;BME280;63651;55.728;38.022;2023-05-16T22:07:17;100118.84;;;19.19;39.51
75072;BME280;63651;55.728;38.022;2023-05-16T22:12:18;100121.16;;;19.10;39.96
75072;BME280;63651;55.728;38.022;2023-05-16T22:17:19;100122.25;;;19.09;39.80
75072;BME280;63651;55.728;38.022;2023-05-16T22:22:20;100120.31;;;19.10;39.60
75072;BME280;63651;55.728;38.022;2023-05-16T22:27:21;100118.16;;;19.12;39.47
75072;BME280;63651;55.728;38.022;2023-05-16T22:32:22;100116.41;;;19.06;39.33
75072;BME280;63651;55.728;38.022;2023-05-16T22:37:23;100110.44;;;18.97;39.31
75072;BME280;63651;55.728;38.022;2023-05-16T22:42:25;100117.63;;;18.98;39.00
75072;BME280;63651;55.728;38.022;2023-05-16T22:47:26;100118.13;;;18.95;39.15
75072;BME280;63651;55.728;38.022;2023-05-16T22:52:28;100111.69;;;18.90;39.18
75072;BME280;63651;55.728;38.022;2023-05-16T22:57:29;100117.81;;;18.80;38.95
75072;BME280;63651;55.728;38.022;2023-05-16T23:02:30;100121.41;;;18.80;38.83
75072;BME280;63651;55.728;38.022;2023-05-16T23:07:31;100120.69;;;18.85;39.17
75072;BME280;63651;55.728;38.022;2023-05-16T23:12:32;100124.28;;;18.85;39.21
75072;BME280;63651;55.728;38.022;2023-05-16T23:17:33;100128.50;;;18.76;39.09
75072;BME280;63651;55.728;38.022;2023-05-16T23:22:34;100124.31;;;18.74;38.92
75072;BME280;63651;55.728;38.022;2023-05-16T23:27:35;100132.81;;;18.72;38.98
75072;BME280;63651;55.728;38.022;2023-05-16T23:32:36;100134.72;;;18.72;38.91
75072;BME280;63651;55.728;38.022;2023-05-16T23:37:37;100131.63;;;18.68;38.90
75072;BME280;63651;55.728;38.022;2023-05-16T23:42:38;100135.38;;;18.62;38.84
75072;BME280;63651;55.728;38.022;2023-05-16T23:47:42;100130.31;;;18.59;38.81
75072;BME280;63651;55.728;38.022;2023-05-16T23:52:43;100137.50;;;18.60;39.00
75072;BME280;63651;55.728;38.022;2023-05-16T23:57:44;100138.13;;;18.50;39.07
